createdAt,value
2018-06-16T00:00:39.213Z,39.80
2018-06-16T00:01:44.175Z,39.80
2018-06-16T00:02:49.329Z,39.80
2018-06-16T00:03:54.494Z,39.70
2018-06-16T00:04:59.621Z,39.70
2018-06-16T00:06:04.758Z,39.90
2018-06-16T00:07:09.878Z,39.80
2018-06-16T00:08:14.891Z,39.80
2018-06-16T00:09:19.902Z,39.90
2018-06-16T00:10:24.855Z,39.80
2018-06-16T00:11:29.791Z,39.70
2018-06-16T00:12:34.831Z,39.80
2018-06-16T00:13:39.935Z,39.90
2018-06-16T00:14:44.881Z,39.90
2018-06-16T00:15:49.975Z,39.80
2018-06-16T00:16:54.979Z,39.70
2018-06-16T00:18:00.323Z,39.90
2018-06-16T00:19:05.629Z,39.70
2018-06-16T00:20:10.655Z,39.80
2018-06-16T00:21:15.647Z,39.80
2018-06-16T00:22:20.698Z,39.90
2018-06-16T00:23:25.667Z,39.90
2018-06-16T00:24:30.821Z,39.90
2018-06-16T00:25:35.976Z,39.80
2018-06-16T00:26:41.051Z,39.80
2018-06-16T00:27:46.050Z,39.90
2018-06-16T00:28:51.165Z,39.70
2018-06-16T00:29:56.265Z,39.90
2018-06-16T00:31:01.292Z,39.90
2018-06-16T00:32:06.296Z,39.70
2018-06-16T00:33:11.245Z,39.90
2018-06-16T00:34:16.245Z,39.90
2018-06-16T00:35:21.715Z,39.80
2018-06-16T00:36:26.693Z,39.90
2018-06-16T00:37:31.704Z,39.90
2018-06-16T00:38:36.753Z,39.90
2018-06-16T00:39:41.696Z,39.90
2018-06-16T00:40:46.630Z,39.90
2018-06-16T00:41:51.570Z,39.90
2018-06-16T00:42:56.539Z,39.90
2018-06-16T00:44:01.441Z,39.90
2018-06-16T00:45:06.343Z,39.90
2018-06-16T00:46:11.360Z,39.90
2018-06-16T00:47:16.363Z,39.90
2018-06-16T00:48:21.306Z,39.90
2018-06-16T00:49:26.332Z,39.90
2018-06-16T00:50:31.396Z,39.90
2018-06-16T00:51:36.440Z,39.90
2018-06-16T00:52:41.511Z,39.90
2018-06-16T00:53:46.526Z,39.90
2018-06-16T00:54:51.793Z,39.80
2018-06-16T00:55:56.782Z,39.80
2018-06-16T00:57:01.928Z,39.90
2018-06-16T00:58:07.053Z,39.90
2018-06-16T00:59:12.014Z,39.90
2018-06-16T01:00:17.326Z,39.90
2018-06-16T01:01:22.516Z,39.90
2018-06-16T01:02:27.718Z,39.80
2018-06-16T01:03:32.956Z,39.90
2018-06-16T01:04:38.098Z,39.90
2018-06-16T01:05:43.429Z,39.80
2018-06-16T01:06:48.439Z,39.90
2018-06-16T01:07:53.463Z,39.80
2018-06-16T01:08:58.519Z,39.90
2018-06-16T01:10:03.604Z,39.90
2018-06-16T01:11:09.029Z,39.90
2018-06-16T01:12:14.075Z,39.80
2018-06-16T01:13:19.338Z,39.80
2018-06-16T01:14:24.362Z,39.90
2018-06-16T01:15:29.506Z,39.90
2018-06-16T01:16:34.975Z,39.80
2018-06-16T01:17:40.553Z,39.80
2018-06-16T01:18:45.708Z,39.80
2018-06-16T01:19:51.431Z,40.00
2018-06-16T01:20:56.510Z,39.80
2018-06-16T01:22:01.605Z,39.90
2018-06-16T01:23:06.719Z,39.90
2018-06-16T01:24:11.758Z,39.80
2018-06-16T01:25:16.888Z,39.90
2018-06-16T01:26:22.021Z,39.90
2018-06-16T01:27:26.998Z,39.90
2018-06-16T01:28:32.030Z,39.90
2018-06-16T01:29:36.980Z,39.90
2018-06-16T01:30:42.203Z,40.00
2018-06-16T01:31:47.278Z,39.90
2018-06-16T01:32:52.166Z,39.90
2018-06-16T01:33:57.268Z,39.90
2018-06-16T01:35:02.372Z,39.90
2018-06-16T01:36:07.395Z,39.90
2018-06-16T01:37:12.376Z,39.90
2018-06-16T01:38:17.532Z,39.80
2018-06-16T01:39:22.732Z,40.00
2018-06-16T01:40:27.723Z,39.90
2018-06-16T01:41:32.695Z,39.90
2018-06-16T01:42:37.747Z,40.00
2018-06-16T01:43:42.762Z,39.90
2018-06-16T01:44:47.752Z,39.90
2018-06-16T01:45:52.671Z,40.00
2018-06-16T01:46:58.126Z,40.00
2018-06-16T01:48:03.328Z,40.00
2018-06-16T01:49:08.296Z,39.80
2018-06-16T01:50:13.374Z,40.00
2018-06-16T01:51:18.347Z,39.90
2018-06-16T01:52:23.295Z,39.90
2018-06-16T01:53:28.132Z,40.00
2018-06-16T01:54:33.048Z,39.90
2018-06-16T01:55:38.280Z,39.90
2018-06-16T01:56:43.305Z,39.90
2018-06-16T01:57:48.277Z,40.00
2018-06-16T01:58:53.430Z,39.90
2018-06-16T01:59:58.379Z,39.90
2018-06-16T02:01:03.505Z,40.00
2018-06-16T02:02:08.568Z,40.00
2018-06-16T02:03:14.341Z,40.00
2018-06-16T02:04:19.438Z,40.00
2018-06-16T02:05:24.676Z,40.00
2018-06-16T02:06:29.912Z,39.90
2018-06-16T02:07:34.936Z,40.00
2018-06-16T02:08:39.997Z,40.00
2018-06-16T02:09:44.955Z,40.00
2018-06-16T02:10:50.284Z,40.00
2018-06-16T02:11:55.379Z,39.90
2018-06-16T02:13:00.286Z,39.90
2018-06-16T02:14:05.319Z,40.00
2018-06-16T02:15:10.347Z,40.00
2018-06-16T02:16:15.437Z,40.00
2018-06-16T02:17:20.542Z,40.00
2018-06-16T02:18:26.175Z,40.00
2018-06-16T02:19:31.125Z,40.00
2018-06-16T02:20:36.355Z,40.00
2018-06-16T02:21:41.413Z,40.00
2018-06-16T02:22:46.373Z,40.10
2018-06-16T02:23:51.379Z,40.00
2018-06-16T02:24:56.392Z,40.00
2018-06-16T02:26:01.402Z,40.00
2018-06-16T02:27:06.470Z,40.00
2018-06-16T02:28:11.556Z,40.10
2018-06-16T02:29:17.162Z,40.00
2018-06-16T02:30:22.279Z,40.00
2018-06-16T02:31:27.481Z,40.10
2018-06-16T02:32:32.485Z,40.00
2018-06-16T02:33:37.629Z,40.00
2018-06-16T02:34:42.738Z,40.10
2018-06-16T02:35:47.754Z,40.10
2018-06-16T02:36:52.886Z,40.00
2018-06-16T02:37:57.919Z,40.00
2018-06-16T02:39:02.941Z,40.00
2018-06-16T02:40:08.020Z,40.10
2018-06-16T02:41:14.244Z,40.10
2018-06-16T02:42:19.412Z,40.10
2018-06-16T02:43:24.508Z,40.10
2018-06-16T02:44:29.470Z,40.00
2018-06-16T02:45:34.400Z,40.00
2018-06-16T02:46:39.410Z,40.10
2018-06-16T02:47:44.563Z,40.00
2018-06-16T02:48:50.386Z,40.10
2018-06-16T02:49:55.531Z,40.10
2018-06-16T02:51:00.683Z,40.10
2018-06-16T02:52:05.796Z,40.20
2018-06-16T02:53:10.799Z,40.10
2018-06-16T02:54:15.794Z,40.80
2018-06-16T02:55:20.867Z,40.10
2018-06-16T02:56:25.920Z,40.10
2018-06-16T02:57:31.042Z,40.20
2018-06-16T02:58:36.099Z,40.20
2018-06-16T02:59:41.090Z,40.10
2018-06-16T03:00:46.008Z,40.20
2018-06-16T03:01:51.116Z,40.20
2018-06-16T03:02:56.005Z,40.10
2018-06-16T03:04:01.102Z,40.20
2018-06-16T03:05:06.154Z,40.20
2018-06-16T03:06:11.255Z,40.20
2018-06-16T03:07:16.339Z,40.20
2018-06-16T03:08:21.365Z,40.20
2018-06-16T03:09:26.464Z,40.20
2018-06-16T03:10:31.453Z,40.20
2018-06-16T03:11:36.564Z,40.20
2018-06-16T03:12:41.484Z,40.20
2018-06-16T03:13:46.502Z,40.10
2018-06-16T03:14:52.229Z,40.30
2018-06-16T03:15:57.227Z,40.20
2018-06-16T03:17:02.360Z,40.20
2018-06-16T03:18:07.309Z,40.20
2018-06-16T03:19:12.316Z,40.20
2018-06-16T03:20:17.619Z,40.20
2018-06-16T03:21:22.758Z,40.20
2018-06-16T03:22:27.712Z,40.20
2018-06-16T03:23:32.786Z,40.30
2018-06-16T03:24:37.723Z,40.30
2018-06-16T03:25:42.741Z,40.30
2018-06-16T03:26:47.686Z,40.30
2018-06-16T03:27:52.572Z,40.40
2018-06-16T03:28:57.664Z,40.30
2018-06-16T03:30:02.819Z,40.40
2018-06-16T03:31:07.945Z,40.30
2018-06-16T03:32:12.992Z,40.30
2018-06-16T03:33:18.119Z,41.00
2018-06-16T03:34:23.160Z,40.30
2018-06-16T03:35:28.222Z,40.40
2018-06-16T03:36:33.326Z,40.30
2018-06-16T03:37:38.440Z,40.30
2018-06-16T03:38:43.464Z,40.40
2018-06-16T03:39:48.499Z,40.40
2018-06-16T03:40:53.492Z,40.40
2018-06-16T03:41:59.227Z,40.30
2018-06-16T03:43:04.260Z,40.40
2018-06-16T03:44:09.335Z,40.40
2018-06-16T03:45:14.273Z,40.40
2018-06-16T03:46:19.332Z,40.30
2018-06-16T03:47:24.328Z,40.40
2018-06-16T03:48:29.356Z,40.40
2018-06-16T03:49:34.545Z,40.40
2018-06-16T03:50:39.571Z,40.40
2018-06-16T03:51:44.640Z,40.40
2018-06-16T03:52:49.946Z,40.50
2018-06-16T03:53:55.101Z,40.40
2018-06-16T03:55:00.313Z,40.40
2018-06-16T03:56:05.471Z,40.40
2018-06-16T03:57:10.518Z,40.40
2018-06-16T03:58:15.503Z,40.50
2018-06-16T03:59:20.655Z,40.40
2018-06-16T04:00:25.879Z,40.50
2018-06-16T04:01:31.014Z,40.40
2018-06-16T04:02:36.144Z,40.50
2018-06-16T04:03:41.174Z,40.40
2018-06-16T04:04:46.154Z,40.50
2018-06-16T04:05:51.238Z,40.50
2018-06-16T04:06:56.349Z,40.50
2018-06-16T04:08:01.325Z,40.50
2018-06-16T04:09:06.226Z,40.50
2018-06-16T04:10:11.441Z,40.50
2018-06-16T04:11:16.540Z,40.50
2018-06-16T04:12:21.850Z,40.50
2018-06-16T04:13:27.017Z,40.50
2018-06-16T04:14:31.937Z,40.60
2018-06-16T04:15:36.961Z,40.60
2018-06-16T04:16:42.081Z,40.50
2018-06-16T04:17:47.028Z,40.50
2018-06-16T04:18:52.051Z,40.50
2018-06-16T04:19:57.647Z,40.60
2018-06-16T04:21:02.790Z,40.60
2018-06-16T04:22:07.799Z,40.70
2018-06-16T04:23:12.929Z,40.60
2018-06-16T04:24:18.079Z,40.70
2018-06-16T04:25:23.175Z,40.70
2018-06-16T04:26:28.189Z,40.70
2018-06-16T04:27:33.305Z,40.70
2018-06-16T04:28:38.277Z,40.70
2018-06-16T04:29:43.262Z,40.70
2018-06-16T04:30:48.201Z,40.70
2018-06-16T04:31:53.232Z,40.70
2018-06-16T04:32:58.282Z,40.70
2018-06-16T04:34:03.169Z,40.70
2018-06-16T04:35:08.101Z,40.80
2018-06-16T04:36:13.156Z,40.80
2018-06-16T04:37:18.192Z,40.80
2018-06-16T04:38:23.190Z,40.80
2018-06-16T04:39:28.930Z,40.80
2018-06-16T04:40:33.886Z,40.80
2018-06-16T04:41:38.730Z,40.80
2018-06-16T04:42:43.767Z,40.70
2018-06-16T04:43:48.767Z,40.80
2018-06-16T04:44:53.667Z,40.90
2018-06-16T04:45:58.738Z,40.90
2018-06-16T04:47:03.735Z,40.90
2018-06-16T04:48:08.864Z,40.80
2018-06-16T04:49:13.934Z,40.80
2018-06-16T04:50:19.040Z,40.80
2018-06-16T04:51:24.292Z,40.90
2018-06-16T04:52:29.765Z,40.90
2018-06-16T04:53:34.783Z,40.90
2018-06-16T04:54:39.743Z,40.90
2018-06-16T04:55:44.780Z,40.80
2018-06-16T04:56:50.242Z,41.00
2018-06-16T04:57:55.431Z,41.00
2018-06-16T04:59:00.397Z,41.00
2018-06-16T05:00:05.319Z,41.00
2018-06-16T05:01:10.313Z,41.00
2018-06-16T05:02:15.190Z,41.10
2018-06-16T05:03:20.609Z,41.00
2018-06-16T05:04:25.690Z,41.00
2018-06-16T05:05:31.233Z,41.10
2018-06-16T05:06:36.355Z,41.10
2018-06-16T05:07:41.363Z,41.10
2018-06-16T05:08:46.366Z,41.20
2018-06-16T05:09:51.468Z,41.20
2018-06-16T05:10:56.580Z,41.30
2018-06-16T05:12:01.668Z,41.20
2018-06-16T05:13:06.805Z,41.30
2018-06-16T05:14:11.828Z,41.30
2018-06-16T05:15:17.751Z,41.30
2018-06-16T05:16:22.714Z,41.30
2018-06-16T05:17:27.776Z,41.30
2018-06-16T05:18:32.775Z,41.20
2018-06-16T05:19:37.730Z,41.30
2018-06-16T05:20:42.632Z,41.30
2018-06-16T05:21:47.737Z,41.30
2018-06-16T05:22:52.911Z,41.40
2018-06-16T05:23:57.871Z,41.40
2018-06-16T05:25:02.925Z,41.40
2018-06-16T05:26:07.908Z,41.40
2018-06-16T05:27:12.999Z,41.40
2018-06-16T05:28:18.074Z,41.50
2018-06-16T05:29:23.009Z,41.50
2018-06-16T05:30:28.641Z,41.50
2018-06-16T05:31:33.676Z,41.50
2018-06-16T05:32:38.582Z,41.50
2018-06-16T05:33:43.549Z,41.60
2018-06-16T05:34:48.592Z,41.50
2018-06-16T05:35:54.588Z,41.70
2018-06-16T05:36:59.750Z,41.90
2018-06-16T05:38:04.913Z,41.90
2018-06-16T05:39:09.892Z,42.00
2018-06-16T05:40:14.865Z,42.20
2018-06-16T05:41:19.794Z,42.40
2018-06-16T05:42:24.711Z,42.50
2018-06-16T05:43:29.620Z,42.60
2018-06-16T05:44:34.663Z,42.90
2018-06-16T05:45:39.715Z,43.20
2018-06-16T05:46:44.632Z,43.20
2018-06-16T05:47:49.643Z,43.10
2018-06-16T05:48:54.553Z,43.10
2018-06-16T05:49:59.607Z,43.10
2018-06-16T05:51:04.552Z,43.20
2018-06-16T05:52:09.660Z,43.20
2018-06-16T05:53:14.684Z,43.30
2018-06-16T05:54:19.615Z,43.30
2018-06-16T05:55:24.511Z,43.40
2018-06-16T05:56:29.544Z,43.40
2018-06-16T05:57:34.522Z,43.50
2018-06-16T05:58:39.434Z,43.50
2018-06-16T05:59:44.391Z,43.60
2018-06-16T06:00:49.428Z,43.60
2018-06-16T06:01:54.403Z,43.60
2018-06-16T06:02:59.422Z,43.70
2018-06-16T06:04:04.518Z,43.70
2018-06-16T06:05:09.493Z,43.80
2018-06-16T06:06:14.411Z,43.80
2018-06-16T06:07:19.588Z,43.80
2018-06-16T06:08:24.477Z,43.90
2018-06-16T06:09:29.402Z,43.90
2018-06-16T06:10:34.470Z,43.90
2018-06-16T06:11:39.421Z,43.90
2018-06-16T06:12:44.315Z,43.90
2018-06-16T06:13:49.282Z,43.90
2018-06-16T06:14:54.216Z,43.90
2018-06-16T06:15:59.138Z,43.90
2018-06-16T06:17:04.116Z,43.90
2018-06-16T06:18:09.216Z,44.00
2018-06-16T06:19:14.186Z,44.10
2018-06-16T06:20:19.257Z,44.10
2018-06-16T06:21:24.194Z,44.10
2018-06-16T06:22:29.241Z,44.10
2018-06-16T06:23:34.260Z,44.00
2018-06-16T06:24:39.282Z,44.00
2018-06-16T06:25:44.393Z,44.10
2018-06-16T06:26:49.301Z,44.20
2018-06-16T06:27:54.286Z,44.20
2018-06-16T06:28:59.301Z,44.20
2018-06-16T06:30:04.454Z,44.30
2018-06-16T06:31:09.480Z,44.30
2018-06-16T06:32:14.361Z,44.30
2018-06-16T06:33:19.329Z,44.30
2018-06-16T06:34:24.415Z,44.40
2018-06-16T06:35:29.508Z,44.50
2018-06-16T06:36:34.408Z,44.50
2018-06-16T06:37:39.337Z,44.60
2018-06-16T06:38:44.179Z,44.70
2018-06-16T06:39:49.031Z,44.80
2018-06-16T06:40:53.932Z,44.70
2018-06-16T06:41:58.939Z,44.70
2018-06-16T06:43:03.895Z,44.70
2018-06-16T06:44:09.011Z,44.60
2018-06-16T06:45:14.061Z,44.60
2018-06-16T06:46:19.021Z,44.80
2018-06-16T06:47:24.034Z,45.00
2018-06-16T06:48:28.915Z,45.10
2018-06-16T06:49:33.838Z,45.10
2018-06-16T06:50:38.835Z,45.20
2018-06-16T06:51:43.880Z,45.40
2018-06-16T06:52:49.220Z,45.50
2018-06-16T06:53:54.284Z,45.60
2018-06-16T06:54:59.226Z,45.50
2018-06-16T06:56:04.214Z,45.50
2018-06-16T06:57:09.169Z,45.60
2018-06-16T06:58:14.152Z,45.60
2018-06-16T06:59:19.179Z,45.60
2018-06-16T07:00:24.144Z,45.70
2018-06-16T07:01:29.108Z,45.50
2018-06-16T07:02:34.107Z,45.60
2018-06-16T07:03:38.958Z,45.60
2018-06-16T07:04:43.896Z,45.60
2018-06-16T07:05:49.051Z,45.50
2018-06-16T07:06:54.099Z,45.60
2018-06-16T07:07:59.134Z,45.60
2018-06-16T07:09:04.188Z,45.70
2018-06-16T07:10:09.191Z,45.80
2018-06-16T07:11:14.161Z,45.70
2018-06-16T07:12:19.359Z,45.70
2018-06-16T07:13:24.388Z,46.00
2018-06-16T07:14:29.399Z,46.30
2018-06-16T07:15:34.319Z,46.20
2018-06-16T07:16:39.343Z,46.30
2018-06-16T07:17:45.460Z,46.30
2018-06-16T07:18:50.544Z,46.20
2018-06-16T07:19:55.537Z,46.10
2018-06-16T07:21:00.536Z,46.00
2018-06-16T07:22:05.465Z,46.00
2018-06-16T07:23:10.469Z,45.90
2018-06-16T07:24:15.436Z,45.80
2018-06-16T07:25:20.497Z,45.70
2018-06-16T07:26:25.488Z,45.70
2018-06-16T07:27:30.525Z,45.70
2018-06-16T07:28:35.570Z,45.70
2018-06-16T07:29:40.669Z,45.70
2018-06-16T07:30:45.580Z,45.70
2018-06-16T07:31:50.584Z,45.70
2018-06-16T07:32:55.705Z,45.70
2018-06-16T07:34:00.672Z,45.60
2018-06-16T07:35:05.692Z,45.60
2018-06-16T07:36:10.837Z,45.70
2018-06-16T07:37:15.896Z,45.70
2018-06-16T07:38:20.910Z,45.70
2018-06-16T07:39:26.470Z,45.70
2018-06-16T07:40:31.413Z,45.70
2018-06-16T07:41:36.509Z,45.60
2018-06-16T07:42:41.559Z,45.60
2018-06-16T07:43:46.512Z,45.60
2018-06-16T07:44:51.618Z,46.30
2018-06-16T07:45:56.469Z,45.70
2018-06-16T07:47:01.510Z,45.70
2018-06-16T07:48:06.597Z,45.80
2018-06-16T07:49:11.704Z,45.90
2018-06-16T07:50:16.803Z,46.10
2018-06-16T07:51:21.909Z,46.10
2018-06-16T07:52:26.891Z,46.10
2018-06-16T07:53:32.283Z,46.60
2018-06-16T07:54:37.387Z,46.90
2018-06-16T07:55:42.613Z,46.50
2018-06-16T07:56:48.448Z,46.30
2018-06-16T07:57:53.451Z,46.20
2018-06-16T07:58:58.468Z,46.00
2018-06-16T08:00:03.594Z,45.90
2018-06-16T08:01:08.707Z,45.90
2018-06-16T08:02:13.734Z,46.10
2018-06-16T08:03:18.859Z,46.10
2018-06-16T08:04:23.830Z,46.20
2018-06-16T08:05:28.905Z,46.20
2018-06-16T08:06:33.965Z,46.40
2018-06-16T08:07:38.992Z,46.30
2018-06-16T08:08:44.048Z,46.30
2018-06-16T08:09:49.088Z,46.10
2018-06-16T08:10:54.022Z,46.10
2018-06-16T08:11:59.072Z,46.20
2018-06-16T08:13:04.008Z,46.30
2018-06-16T08:14:08.968Z,46.40
2018-06-16T08:15:13.907Z,47.40
2018-06-16T08:16:18.871Z,48.30
2018-06-16T08:17:23.817Z,48.70
2018-06-16T08:18:28.749Z,49.30
2018-06-16T08:19:33.793Z,49.40
2018-06-16T08:20:38.810Z,49.40
2018-06-16T08:21:43.980Z,50.30
2018-06-16T08:22:48.890Z,50.60
2018-06-16T08:23:53.820Z,50.40
2018-06-16T08:24:58.835Z,50.00
2018-06-16T08:26:03.946Z,50.30
2018-06-16T08:27:09.016Z,51.10
2018-06-16T08:28:13.951Z,50.40
2018-06-16T08:29:18.979Z,51.80
2018-06-16T08:30:24.099Z,50.60
2018-06-16T08:31:29.228Z,50.40
2018-06-16T08:32:34.291Z,51.10
2018-06-16T08:33:39.494Z,51.40
2018-06-16T08:34:44.592Z,50.60
2018-06-16T08:35:49.672Z,50.90
2018-06-16T08:36:54.735Z,52.50
2018-06-16T08:37:59.844Z,52.40
2018-06-16T08:39:04.872Z,52.90
2018-06-16T08:40:09.850Z,52.50
2018-06-16T08:41:14.817Z,52.10
2018-06-16T08:42:19.843Z,51.90
2018-06-16T08:43:25.050Z,51.90
2018-06-16T08:44:30.089Z,52.00
2018-06-16T08:45:35.093Z,52.60
2018-06-16T08:46:40.075Z,52.60
2018-06-16T08:47:45.002Z,52.10
2018-06-16T08:48:50.145Z,52.40
2018-06-16T08:49:55.268Z,54.70
2018-06-16T08:51:00.179Z,55.20
2018-06-16T08:52:05.235Z,57.70
2018-06-16T08:53:10.193Z,67.80
2018-06-16T08:54:15.115Z,57.30
2018-06-16T08:55:20.055Z,56.10
2018-06-16T08:56:25.068Z,59.20
2018-06-16T08:57:30.117Z,58.80
2018-06-16T08:58:35.130Z,57.50
2018-06-16T08:59:40.065Z,57.80
2018-06-16T09:00:45.021Z,56.50
2018-06-16T09:01:49.954Z,59.00
2018-06-16T09:02:54.967Z,58.80
2018-06-16T09:04:00.125Z,58.80
2018-06-16T09:05:05.216Z,58.40
2018-06-16T09:06:10.313Z,58.70
2018-06-16T09:07:15.476Z,59.30
2018-06-16T09:08:20.556Z,58.70
2018-06-16T09:09:26.086Z,58.70
2018-06-16T09:10:31.309Z,58.90
2018-06-16T09:11:36.851Z,60.80
2018-06-16T09:12:41.827Z,61.90
2018-06-16T09:13:46.936Z,62.00
2018-06-16T09:14:51.944Z,61.90
2018-06-16T09:15:57.152Z,60.80
2018-06-16T09:17:02.526Z,61.40
2018-06-16T09:18:07.768Z,60.80
2018-06-16T09:19:12.877Z,61.10
2018-06-16T09:20:18.025Z,62.70
2018-06-16T09:21:23.083Z,61.30
2018-06-16T09:22:28.241Z,64.20
2018-06-16T09:23:33.452Z,63.90
2018-06-16T09:24:38.528Z,64.30
2018-06-16T09:25:43.629Z,64.90
2018-06-16T09:26:48.834Z,68.20
2018-06-16T09:27:54.021Z,70.30
2018-06-16T09:28:59.047Z,72.70
2018-06-16T09:30:04.196Z,68.30
2018-06-16T09:31:09.295Z,71.40
2018-06-16T09:32:14.384Z,66.20
2018-06-16T09:33:19.335Z,58.80
2018-06-16T09:34:24.326Z,58.90
2018-06-16T09:35:29.328Z,58.50
2018-06-16T09:36:34.312Z,58.80
2018-06-16T09:37:39.445Z,58.90
2018-06-16T09:38:44.389Z,58.70
2018-06-16T09:39:49.738Z,58.80
2018-06-16T09:40:54.879Z,58.90
2018-06-16T09:41:59.945Z,59.00
2018-06-16T09:43:04.958Z,59.10
2018-06-16T09:44:10.106Z,60.70
2018-06-16T09:45:15.050Z,59.60
2018-06-16T09:46:20.371Z,59.40
2018-06-16T09:47:25.340Z,58.10
2018-06-16T09:48:30.398Z,55.50
2018-06-16T09:49:35.388Z,55.40
2018-06-16T09:50:40.396Z,56.20
2018-06-16T09:51:45.417Z,55.90
2018-06-16T09:52:50.320Z,56.10
2018-06-16T09:53:55.410Z,55.70
2018-06-16T09:55:00.317Z,55.00
2018-06-16T09:56:05.537Z,55.20
2018-06-16T09:57:10.608Z,55.90
2018-06-16T09:58:15.511Z,57.30
2018-06-16T09:59:20.456Z,56.70
2018-06-16T10:00:25.482Z,57.10
2018-06-16T10:01:30.589Z,58.40
2018-06-16T10:02:36.586Z,58.50
2018-06-16T10:03:41.494Z,58.10
2018-06-16T10:04:46.459Z,57.90
2018-06-16T10:05:51.433Z,58.60
2018-06-16T10:06:56.401Z,57.70
2018-06-16T10:08:01.465Z,57.40
2018-06-16T10:09:06.534Z,59.20
2018-06-16T10:10:11.491Z,59.20
2018-06-16T10:11:16.396Z,59.50
2018-06-16T10:12:21.492Z,59.10
2018-06-16T10:13:26.515Z,57.70
2018-06-16T10:14:31.460Z,57.40
2018-06-16T10:15:36.550Z,57.90
2018-06-16T10:16:41.715Z,58.40
2018-06-16T10:17:46.664Z,58.40
2018-06-16T10:18:51.561Z,58.50
2018-06-16T10:19:56.649Z,59.90
2018-06-16T10:21:01.607Z,61.50
2018-06-16T10:22:06.720Z,61.10
2018-06-16T10:23:11.747Z,61.20
2018-06-16T10:24:16.773Z,61.00
2018-06-16T10:25:21.753Z,59.80
2018-06-16T10:26:26.667Z,59.20
2018-06-16T10:27:31.657Z,59.10
2018-06-16T10:28:36.895Z,58.80
2018-06-16T10:29:43.517Z,59.10
2018-06-16T10:30:48.596Z,58.60
2018-06-16T10:31:53.637Z,58.30
2018-06-16T10:32:58.646Z,57.50
2018-06-16T10:34:03.712Z,59.40
2018-06-16T10:35:08.847Z,59.40
2018-06-16T10:36:13.899Z,59.90
2018-06-16T10:37:19.039Z,60.30
2018-06-16T10:38:24.039Z,59.50
2018-06-16T10:39:29.153Z,59.90
2018-06-16T10:40:34.224Z,60.60
2018-06-16T10:41:39.392Z,61.40
2018-06-16T10:42:44.301Z,63.10
2018-06-16T10:43:49.422Z,62.30
2018-06-16T10:44:54.569Z,62.20
2018-06-16T10:45:59.756Z,62.10
2018-06-16T10:47:04.862Z,61.80
2018-06-16T10:48:09.916Z,62.50
2018-06-16T10:49:14.915Z,63.30
2018-06-16T10:50:20.007Z,62.60
2018-06-16T10:51:25.078Z,62.00
2018-06-16T10:52:30.243Z,61.80
2018-06-16T10:53:35.405Z,62.00
2018-06-16T10:54:40.416Z,61.30
2018-06-16T10:55:45.412Z,61.30
2018-06-16T10:56:50.501Z,61.40
2018-06-16T10:57:55.518Z,62.30
2018-06-16T10:59:00.625Z,62.40
2018-06-16T11:00:05.676Z,62.60
2018-06-16T11:01:10.977Z,62.00
2018-06-16T11:02:15.941Z,61.60
2018-06-16T11:03:21.094Z,61.20
2018-06-16T11:04:26.164Z,61.80
2018-06-16T11:05:31.404Z,61.20
2018-06-16T11:06:36.542Z,60.20
2018-06-16T11:07:41.716Z,59.20
2018-06-16T11:08:46.828Z,58.90
2018-06-16T11:09:52.019Z,58.50
2018-06-16T11:10:57.240Z,59.00
2018-06-16T11:12:02.393Z,59.10
2018-06-16T11:13:07.622Z,58.70
2018-06-16T11:14:12.713Z,59.30
2018-06-16T11:15:17.754Z,58.90
2018-06-16T11:16:22.922Z,59.50
2018-06-16T11:17:28.150Z,60.20
2018-06-16T11:18:33.273Z,63.80
2018-06-16T11:19:38.416Z,62.50
2018-06-16T11:20:43.369Z,60.50
2018-06-16T11:21:48.469Z,59.90
2018-06-16T11:22:53.474Z,59.50
2018-06-16T11:23:58.476Z,59.10
2018-06-16T11:25:03.587Z,58.70
2018-06-16T11:26:08.608Z,59.10
2018-06-16T11:27:13.701Z,58.90
2018-06-16T11:28:19.264Z,58.80
2018-06-16T11:29:24.423Z,58.70
2018-06-16T11:30:29.650Z,59.00
2018-06-16T11:31:34.751Z,58.80
2018-06-16T11:32:39.925Z,59.30
2018-06-16T11:33:45.091Z,59.30
2018-06-16T11:34:50.351Z,59.50
2018-06-16T11:35:55.825Z,59.50
2018-06-16T11:37:01.030Z,59.70
2018-06-16T11:38:06.336Z,60.10
2018-06-16T11:39:11.451Z,60.00
2018-06-16T11:40:16.524Z,60.00
2018-06-16T11:41:22.420Z,60.00
2018-06-16T11:42:27.704Z,59.80
2018-06-16T11:43:33.147Z,60.30
2018-06-16T11:44:38.505Z,60.30
2018-06-16T11:45:43.559Z,60.10
2018-06-16T11:46:48.853Z,59.80
2018-06-16T11:47:53.931Z,59.90
2018-06-16T11:48:59.286Z,59.90
2018-06-16T11:50:04.519Z,60.30
2018-06-16T11:51:09.583Z,60.00
2018-06-16T11:52:15.639Z,60.50
2018-06-16T11:53:20.625Z,60.30
2018-06-16T11:54:25.567Z,60.00
2018-06-16T11:55:30.562Z,60.20
2018-06-16T11:56:35.511Z,61.30
2018-06-16T11:57:40.564Z,62.50
2018-06-16T11:58:45.559Z,62.10
2018-06-16T11:59:50.509Z,62.20
2018-06-16T12:00:55.513Z,62.00
2018-06-16T12:02:00.785Z,61.70
2018-06-16T12:03:05.807Z,61.60
2018-06-16T12:04:10.735Z,62.30
2018-06-16T12:05:15.709Z,62.30
2018-06-16T12:06:20.666Z,62.20
2018-06-16T12:07:25.686Z,61.90
2018-06-16T12:08:30.567Z,61.50
2018-06-16T12:09:35.536Z,62.00
2018-06-16T12:10:40.692Z,61.90
2018-06-16T12:11:45.611Z,62.00
2018-06-16T12:12:50.636Z,62.00
2018-06-16T12:13:55.585Z,62.50
2018-06-16T12:15:00.538Z,62.60
2018-06-16T12:16:05.622Z,62.70
2018-06-16T12:17:10.676Z,63.30
2018-06-16T12:18:15.653Z,62.90
2018-06-16T12:19:20.796Z,62.80
2018-06-16T12:20:25.837Z,63.10
2018-06-16T12:21:30.907Z,63.00
2018-06-16T12:22:35.832Z,63.40
2018-06-16T12:23:40.840Z,63.70
2018-06-16T12:24:45.798Z,64.00
2018-06-16T12:25:50.862Z,64.20
2018-06-16T12:26:55.870Z,64.20
2018-06-16T12:28:01.408Z,65.00
2018-06-16T12:29:06.430Z,64.80
2018-06-16T12:30:11.416Z,64.60
2018-06-16T12:31:16.502Z,64.20
2018-06-16T12:32:21.705Z,64.50
2018-06-16T12:33:26.746Z,64.50
2018-06-16T12:34:31.749Z,65.00
2018-06-16T12:35:36.811Z,64.70
2018-06-16T12:36:41.888Z,64.40
2018-06-16T12:37:47.063Z,64.40
2018-06-16T12:38:52.184Z,64.70
2018-06-16T12:39:57.113Z,65.00
2018-06-16T12:41:02.265Z,65.30
2018-06-16T12:42:07.390Z,65.30
2018-06-16T12:43:12.363Z,64.80
2018-06-16T12:44:17.468Z,65.20
2018-06-16T12:45:22.517Z,65.60
2018-06-16T12:46:27.538Z,65.60
2018-06-16T12:47:32.470Z,65.50
2018-06-16T12:48:37.500Z,65.70
2018-06-16T12:49:42.560Z,65.40
2018-06-16T12:50:47.701Z,65.40
2018-06-16T12:51:52.622Z,65.40
2018-06-16T12:52:57.797Z,65.30
2018-06-16T12:54:02.923Z,65.70
2018-06-16T12:55:08.112Z,66.00
2018-06-16T12:56:13.095Z,65.90
2018-06-16T12:57:18.215Z,66.10
2018-06-16T12:58:23.333Z,65.90
2018-06-16T12:59:28.316Z,65.90
2018-06-16T13:00:33.266Z,66.20
2018-06-16T13:01:38.537Z,66.30
2018-06-16T13:02:43.513Z,66.90
2018-06-16T13:03:48.638Z,66.20
2018-06-16T13:04:53.698Z,66.60
2018-06-16T13:05:59.021Z,66.50
2018-06-16T13:07:04.761Z,66.80
2018-06-16T13:08:09.809Z,66.80
2018-06-16T13:09:14.807Z,66.10
2018-06-16T13:10:20.691Z,67.10
2018-06-16T13:11:25.636Z,66.70
2018-06-16T13:12:30.771Z,66.80
2018-06-16T13:13:35.740Z,67.00
2018-06-16T13:14:40.786Z,67.20
2018-06-16T13:15:45.738Z,67.30
2018-06-16T13:16:50.707Z,68.00
2018-06-16T13:17:55.650Z,69.30
2018-06-16T13:19:00.644Z,68.50
2018-06-16T13:20:05.802Z,68.70
2018-06-16T13:21:11.205Z,68.60
2018-06-16T13:22:16.185Z,68.40
2018-06-16T13:23:21.148Z,69.40
2018-06-16T13:24:26.128Z,67.50
2018-06-16T13:25:31.220Z,68.70
2018-06-16T13:26:36.286Z,67.70
2018-06-16T13:27:41.350Z,68.20
2018-06-16T13:28:46.327Z,67.30
2018-06-16T13:29:51.368Z,67.90
2018-06-16T13:30:56.484Z,67.50
2018-06-16T13:32:01.636Z,68.30
2018-06-16T13:33:06.681Z,67.40
2018-06-16T13:34:11.838Z,66.70
2018-06-16T13:35:16.813Z,66.00
2018-06-16T13:36:21.778Z,66.00
2018-06-16T13:37:26.818Z,66.30
2018-06-16T13:38:31.817Z,66.00
2018-06-16T13:39:37.047Z,66.00
2018-06-16T13:40:42.836Z,65.90
2018-06-16T13:41:47.941Z,66.00
2018-06-16T13:42:53.298Z,66.20
2018-06-16T13:43:58.442Z,65.40
2018-06-16T13:45:03.391Z,66.30
2018-06-16T13:46:08.599Z,67.20
2018-06-16T13:47:13.602Z,66.50
2018-06-16T13:48:18.585Z,67.10
2018-06-16T13:49:23.632Z,67.40
2018-06-16T13:50:28.679Z,66.90
2018-06-16T13:51:33.749Z,67.30
2018-06-16T13:52:38.854Z,68.30
2018-06-16T13:53:43.923Z,67.00
2018-06-16T13:54:48.943Z,63.30
2018-06-16T13:55:54.033Z,62.60
2018-06-16T13:56:59.325Z,61.80
2018-06-16T13:58:04.471Z,62.50